Time;durP1;ratioP1;P1;durP2;ratioP2;P2;SDS_P1;SDS_P2;PMS_P1;PMS_P2;Temp;Humidity;BMP_temperature;BMP_pressure;BME280_temperature;BME280_humidity;BME280_pressure;Samples;Min_cycle;Max_cycle;Signal;HPM_P1;HPM_P2
2023/06/16 00:01:02;;;;;;;11.35;7.90;;;;;;;;;;5032766;28;20025;-72
2023/06/16 00:03:29;;;;;;;10.25;7.93;;;;;;;;;;5032697;28;20036;-72
2023/06/16 00:05:55;;;;;;;8.98;7.93;;;;;;;;;;5032389;28;20033;-72
2023/06/16 00:08:23;;;;;;;11.85;8.88;;;;;;;;;;5032872;28;20071;-72
2023/06/16 00:10:49;;;;;;;9.80;8.18;;;;;;;;;;5032795;28;20104;-72
2023/06/16 00:13:16;;;;;;;12.90;8.68;;;;;;;;;;5032822;28;20033;-72
2023/06/16 00:15:44;;;;;;;9.40;8.00;;;;;;;;;;5032425;28;20480;-72
2023/06/16 00:18:10;;;;;;;11.95;8.80;;;;;;;;;;5032382;28;20021;-72
2023/06/16 00:20:36;;;;;;;10.40;8.90;;;;;;;;;;5032644;28;20104;-72
2023/06/16 00:23:06;;;;;;;10.10;8.48;;;;;;;;;;5032506;28;20108;-72
2023/06/16 00:25:32;;;;;;;;;;;;;;;;;;5032252;28;20113;-72
2023/06/16 00:27:58;;;;;;;13.98;9.57;;;;;;;;;;5032270;28;20059;-72
2023/06/16 00:30:24;;;;;;;14.18;9.43;;;;;;;;;;5032314;28;20033;-72
2023/06/16 00:32:50;;;;;;;15.15;9.82;;;;;;;;;;5032307;28;20022;-72
2023/06/16 00:35:16;;;;;;;11.10;8.95;;;;;;;;;;5032115;28;20034;-72
2023/06/16 00:37:42;;;;;;;14.07;10.20;;;;;;;;;;5032397;28;20338;-72
2023/06/16 00:40:09;;;;;;;13.88;10.27;;;;;;;;;;5032200;28;20160;-72
2023/06/16 00:42:35;;;;;;;13.85;11.43;;;;;;;;;;5030876;28;20053;-72
2023/06/16 00:45:01;;;;;;;11.38;9.32;;;;;;;;;;5032202;28;20025;-72
2023/06/16 00:47:27;;;;;;;14.77;11.30;;;;;;;;;;5032122;28;20072;-72
2023/06/16 00:49:53;;;;;;;15.88;11.75;;;;;;;;;;5031996;28;20029;-72
2023/06/16 00:52:20;;;;;;;13.07;10.38;;;;;;;;;;5032179;28;20033;-72
2023/06/16 00:54:46;;;;;;;17.33;11.43;;;;;;;;;;5031956;28;20472;-72
2023/06/16 00:57:13;;;;;;;13.70;11.18;;;;;;;;;;5030736;28;20036;-72
2023/06/16 00:59:39;;;;;;;15.13;12.23;;;;;;;;;;5032340;28;20021;-72
2023/06/16 01:02:05;;;;;;;16.60;13.02;;;;;;;;;;5032030;28;20036;-72
2023/06/16 01:04:31;;;;;;;16.65;12.73;;;;;;;;;;5032167;28;20037;-72
2023/06/16 01:07:03;;;;;;;16.95;13.00;;;;;;;;;;5032003;28;20033;-72
2023/06/16 01:09:31;;;;;;;14.07;11.82;;;;;;;;;;5032040;28;20064;-72
2023/06/16 01:12:10;;;;;;;16.40;13.27;;;;;;;;;;5031978;28;20032;-72
2023/06/16 01:14:45;;;;;;;16.95;12.52;;;;;;;;;;5031919;28;20033;-72
2023/06/16 01:17:13;;;;;;;18.75;13.77;;;;;;;;;;5031857;28;20025;-72
2023/06/16 01:19:53;;;;;;;18.50;13.80;;;;;;;;;;5031940;28;20444;-72
2023/06/16 01:22:42;;;;;;;18.15;14.25;;;;;;;;;;5031957;28;20037;-72
2023/06/16 01:25:09;;;;;;;18.55;14.23;;;;;;;;;;5012523;28;20041;-72
2023/06/16 01:27:37;;;;;;;19.02;14.27;;;;;;;;;;5031735;28;20080;-72
2023/06/16 01:30:05;;;;;;;20.92;15.35;;;;;;;;;;5032063;28;20049;-72
2023/06/16 01:32:31;;;;;;;18.63;14.27;;;;;;;;;;5031748;28;20445;-72
2023/06/16 01:34:58;;;;;;;20.40;15.73;;;;;;;;;;5031610;28;20472;-72
2023/06/16 01:37:24;;;;;;;22.80;16.17;;;;;;;;;;5034264;28;20061;-72
2023/06/16 01:39:51;;;;;;;21.52;15.52;;;;;;;;;;5035165;28;20053;-72
2023/06/16 01:42:18;;;;;;;20.55;16.33;;;;;;;;;;5034206;28;20049;-72
2023/06/16 01:44:45;;;;;;;24.67;15.90;;;;;;;;;;5035177;28;20385;-72
2023/06/16 01:47:11;;;;;;;18.83;15.57;;;;;;;;;;5035183;28;20048;-72
2023/06/16 01:49:38;;;;;;;17.95;14.68;;;;;;;;;;5035197;28;20021;-72
2023/06/16 01:52:05;;;;;;;22.88;16.25;;;;;;;;;;5035016;28;20174;-72
2023/06/16 01:54:31;;;;;;;17.75;15.57;;;;;;;;;;5035037;28;20033;-72
2023/06/16 01:56:57;;;;;;;20.45;15.48;;;;;;;;;;5034990;28;20026;-72
2023/06/16 01:59:23;;;;;;;19.75;14.50;;;;;;;;;;5034912;28;20435;-72
2023/06/16 02:01:55;;;;;;;21.63;16.63;;;;;;;;;;5034941;28;20025;-72
2023/06/16 02:04:23;;;;;;;23.60;16.35;;;;;;;;;;5034861;28;20644;-72
2023/06/16 02:06:58;;;;;;;22.00;15.57;;;;;;;;;;5034819;28;20075;-72
2023/06/16 02:09:25;;;;;;;20.52;15.52;;;;;;;;;;5034839;28;20087;-72
2023/06/16 02:11:53;;;;;;;19.63;15.13;;;;;;;;;;5034773;28;20033;-72
2023/06/16 02:14:20;;;;;;;19.90;16.00;;;;;;;;;;5034577;28;20500;-72
2023/06/16 02:16:46;;;;;;;22.20;16.70;;;;;;;;;;5034625;28;20022;-72
2023/06/16 02:19:12;;;;;;;21.50;17.05;;;;;;;;;;5034541;28;20028;-72
2023/06/16 02:21:41;;;;;;;24.85;17.13;;;;;;;;;;5034942;28;20530;-72
2023/06/16 02:24:08;;;;;;;24.23;16.75;;;;;;;;;;5034502;28;20104;-72
2023/06/16 02:26:34;;;;;;;22.50;18.25;;;;;;;;;;5034710;28;20129;-72
2023/06/16 02:29:01;;;;;;;24.65;17.35;;;;;;;;;;5034453;28;20018;-72
2023/06/16 02:31:27;;;;;;;23.23;18.58;;;;;;;;;;5034467;28;20025;-72
2023/06/16 02:33:54;;;;;;;24.10;18.77;;;;;;;;;;5034163;28;20032;-72
2023/06/16 02:36:20;;;;;;;24.45;17.58;;;;;;;;;;5034350;28;20049;-72
2023/06/16 02:38:46;;;;;;;24.95;17.52;;;;;;;;;;5034375;28;20467;-72
2023/06/16 02:41:12;;;;;;;28.30;18.48;;;;;;;;;;5032959;28;20017;-72
2023/06/16 02:43:38;;;;;;;23.63;17.67;;;;;;;;;;5034272;28;20021;-72
2023/06/16 02:46:05;;;;;;;27.30;20.17;;;;;;;;;;5034000;28;20025;-72
2023/06/16 02:48:31;;;;;;;26.63;19.90;;;;;;;;;;5033314;28;20346;-72
2023/06/16 02:50:57;;;;;;;23.75;18.08;;;;;;;;;;5034198;28;20026;-72
2023/06/16 02:53:24;;;;;;;24.75;17.60;;;;;;;;;;5033930;28;20377;-72
2023/06/16 02:55:51;;;;;;;20.58;17.00;;;;;;;;;;5033930;28;20029;-72
2023/06/16 02:58:18;;;;;;;22.13;17.20;;;;;;;;;;5033849;28;20071;-72
2023/06/16 03:00:44;;;;;;;24.75;17.98;;;;;;;;;;5033832;28;20468;-72
2023/06/16 03:03:10;;;;;;;28.10;20.15;;;;;;;;;;5033550;28;20057;-72
2023/06/16 03:05:36;;;;;;;34.33;22.63;;;;;;;;;;5033720;28;20041;-72
2023/06/16 03:08:02;;;;;;;29.10;21.67;;;;;;;;;;5033528;28;20496;-72
2023/06/16 03:10:28;;;;;;;27.77;22.10;;;;;;;;;;5033622;28;20029;-72
2023/06/16 03:12:54;;;;;;;31.45;21.98;;;;;;;;;;5033598;28;20053;-72
2023/06/16 03:15:25;;;;;;;31.45;23.23;;;;;;;;;;5033445;28;20033;-72
2023/06/16 03:17:51;;;;;;;32.92;23.17;;;;;;;;;;5033490;28;20021;-72
2023/06/16 03:20:17;;;;;;;32.67;22.13;;;;;;;;;;5033416;28;20037;-72
2023/06/16 03:22:43;;;;;;;32.17;22.73;;;;;;;;;;5033431;28;20033;-72
2023/06/16 03:25:10;;;;;;;30.00;22.05;;;;;;;;;;5033358;28;20031;-72
2023/06/16 03:27:40;;;;;;;30.75;22.15;;;;;;;;;;5033289;28;20076;-72
2023/06/16 03:30:06;;;;;;;31.75;23.60;;;;;;;;;;5033537;28;20479;-72
2023/06/16 03:32:33;;;;;;;33.00;23.58;;;;;;;;;;5032977;28;20202;-72
2023/06/16 03:35:02;;;;;;;34.67;24.65;;;;;;;;;;5033029;28;20431;-72
2023/06/16 03:37:28;;;;;;;35.42;25.60;;;;;;;;;;5033333;28;20025;-72
2023/06/16 03:39:54;;;;;;;34.22;25.27;;;;;;;;;;5033418;28;20406;-72
2023/06/16 03:42:20;;;;;;;33.25;23.65;;;;;;;;;;5032067;28;20091;-72
2023/06/16 03:44:46;;;;;;;36.25;24.65;;;;;;;;;;5032816;28;20108;-72
2023/06/16 03:47:13;;;;;;;37.05;24.67;;;;;;;;;;5033029;28;20029;-72
2023/06/16 03:49:39;;;;;;;32.03;23.67;;;;;;;;;;5032885;28;20444;-72
2023/06/16 03:52:05;;;;;;;35.58;24.70;;;;;;;;;;5032903;28;20110;-72
2023/06/16 03:54:31;;;;;;;32.95;24.88;;;;;;;;;;5032974;28;20031;-72
2023/06/16 03:56:57;;;;;;;34.80;24.35;;;;;;;;;;5032819;28;20025;-72
2023/06/16 03:59:23;;;;;;;34.33;24.67;;;;;;;;;;5032176;28;20083;-72
2023/06/16 04:01:50;;;;;;;36.58;25.35;;;;;;;;;;5032424;28;20037;-72
2023/06/16 04:04:16;;;;;;;38.03;25.83;;;;;;;;;;5032983;28;20120;-72
2023/06/16 04:06:43;;;;;;;44.42;28.90;;;;;;;;;;5032710;28;20034;-72
2023/06/16 04:09:10;;;;;;;40.22;27.85;;;;;;;;;;5032620;28;20022;-72
2023/06/16 04:11:40;;;;;;;38.90;27.45;;;;;;;;;;5032514;28;20656;-72
2023/06/16 04:14:06;;;;;;;34.95;26.48;;;;;;;;;;5032391;28;20029;-72
2023/06/16 04:16:32;;;;;;;33.20;24.08;;;;;;;;;;5032535;28;20053;-72
2023/06/16 04:19:02;;;;;;;30.40;22.77;;;;;;;;;;5031268;28;20471;-72
2023/06/16 04:21:31;;;;;;;33.92;23.83;;;;;;;;;;5032500;28;20028;-72
2023/06/16 04:23:57;;;;;;;27.23;22.20;;;;;;;;;;5031160;28;20499;-72
2023/06/16 04:26:26;;;;;;;26.13;21.00;;;;;;;;;;5032349;28;20133;-72
2023/06/16 04:28:55;;;;;;;25.75;20.02;;;;;;;;;;5032613;28;20075;-72
2023/06/16 04:31:21;;;;;;;23.10;19.23;;;;;;;;;;5032775;28;20021;-72
2023/06/16 04:33:47;;;;;;;25.58;20.08;;;;;;;;;;5032553;28;20484;-72
2023/06/16 04:36:14;;;;;;;28.27;20.08;;;;;;;;;;5032445;28;20037;-72
2023/06/16 04:38:40;;;;;;;24.25;20.90;;;;;;;;;;5032263;28;20074;-72
2023/06/16 04:41:06;;;;;;;22.27;19.30;;;;;;;;;;5032219;28;20056;-72
2023/06/16 04:43:32;;;;;;;26.00;20.02;;;;;;;;;;5030929;28;20515;-72
2023/06/16 04:45:58;;;;;;;25.23;19.95;;;;;;;;;;5032179;28;20030;-72
2023/06/16 04:48:25;;;;;;;21.95;19.52;;;;;;;;;;5032174;28;20750;-72
2023/06/16 04:50:53;;;;;;;23.08;19.20;;;;;;;;;;5030868;28;20022;-72
2023/06/16 04:53:19;;;;;;;21.55;18.70;;;;;;;;;;5032453;28;20098;-72
2023/06/16 04:55:45;;;;;;;21.73;18.48;;;;;;;;;;5031989;28;20047;-72
2023/06/16 04:58:11;;;;;;;20.20;18.10;;;;;;;;;;5032165;28;20026;-72
2023/06/16 05:00:37;;;;;;;21.55;18.02;;;;;;;;;;5032053;28;20120;-72
2023/06/16 05:03:03;;;;;;;20.48;18.27;;;;;;;;;;5032190;28;20377;-72
2023/06/16 05:05:30;;;;;;;20.85;18.67;;;;;;;;;;5032115;28;20025;-72
2023/06/16 05:07:56;;;;;;;20.08;17.98;;;;;;;;;;5031954;28;20029;-72
2023/06/16 05:10:22;;;;;;;20.73;18.63;;;;;;;;;;5031829;28;20033;-72
2023/06/16 05:12:48;;;;;;;21.08;18.80;;;;;;;;;;5035219;28;20026;-72
2023/06/16 05:15:14;;;;;;;20.83;18.73;;;;;;;;;;5035813;28;20569;-72
2023/06/16 05:17:40;;;;;;;21.23;19.13;;;;;;;;;;5035756;28;20025;-72
2023/06/16 05:20:06;;;;;;;21.80;18.83;;;;;;;;;;5035736;28;20030;-72
2023/06/16 05:22:33;;;;;;;20.45;17.90;;;;;;;;;;5035683;28;20125;-72
2023/06/16 05:24:59;;;;;;;21.90;18.63;;;;;;;;;;5035666;28;20029;-72
2023/06/16 05:27:25;;;;;;;20.77;18.27;;;;;;;;;;5035555;28;20079;-72
2023/06/16 05:29:51;;;;;;;20.05;17.90;;;;;;;;;;5035578;28;20057;-72
2023/06/16 05:32:19;;;;;;;20.52;18.33;;;;;;;;;;5035491;28;20347;-72
2023/06/16 05:34:46;;;;;;;20.73;17.02;;;;;;;;;;5035698;28;20037;-72
2023/06/16 05:37:15;;;;;;;18.55;16.65;;;;;;;;;;5035680;28;20024;-73
2023/06/16 05:39:41;;;;;;;19.50;17.40;;;;;;;;;;5035696;28;20052;-72
2023/06/16 05:42:09;;;;;;;17.13;15.30;;;;;;;;;;5033999;28;20085;-73
2023/06/16 05:44:35;;;;;;;16.65;14.50;;;;;;;;;;5035574;28;20036;-73
2023/06/16 05:47:00;;;;;;;16.75;14.25;;;;;;;;;;5035236;28;20029;-72
2023/06/16 05:49:26;;;;;;;14.73;13.32;;;;;;;;;;5035104;28;20126;-73
2023/06/16 05:51:52;;;;;;;14.27;12.80;;;;;;;;;;5035122;28;20021;-73
2023/06/16 05:54:18;;;;;;;14.63;13.07;;;;;;;;;;5035085;28;20519;-73
2023/06/16 05:56:44;;;;;;;13.27;12.00;;;;;;;;;;5035167;28;20028;-73
2023/06/16 05:59:10;;;;;;;12.18;10.98;;;;;;;;;;5035034;28;20532;-73
2023/06/16 06:01:36;;;;;;;11.13;10.13;;;;;;;;;;5034895;28;20036;-73
2023/06/16 06:04:02;;;;;;;10.98;9.60;;;;;;;;;;5035269;28;20026;-73
2023/06/16 06:06:28;;;;;;;11.18;10.07;;;;;;;;;;5034694;28;20105;-73
2023/06/16 06:08:55;;;;;;;11.15;10.13;;;;;;;;;;5033529;28;20031;-73
2023/06/16 06:11:21;;;;;;;9.95;8.98;;;;;;;;;;5034880;28;20083;-73
2023/06/16 06:13:47;;;;;;;10.65;9.38;;;;;;;;;;5034638;28;20029;-73
2023/06/16 06:16:13;;;;;;;8.45;7.47;;;;;;;;;;5034580;28;20042;-73
2023/06/16 06:18:43;;;;;;;9.15;7.85;;;;;;;;;;5034564;28;20029;-73
2023/06/16 06:21:09;;;;;;;8.18;7.32;;;;;;;;;;5034566;28;20022;-73
2023/06/16 06:23:35;;;;;;;9.00;7.93;;;;;;;;;;5033410;28;20060;-73
2023/06/16 06:26:01;;;;;;;8.23;7.40;;;;;;;;;;5034507;28;20033;-73
2023/06/16 06:28:27;;;;;;;9.70;8.05;;;;;;;;;;5034669;28;20024;-73
2023/06/16 06:30:53;;;;;;;9.70;7.75;;;;;;;;;;5034337;28;20092;-73
2023/06/16 06:33:19;;;;;;;8.38;7.57;;;;;;;;;;5034347;28;20036;-73
2023/06/16 06:35:45;;;;;;;10.27;8.02;;;;;;;;;;5034161;28;20038;-73
2023/06/16 06:38:18;;;;;;;9.25;8.45;;;;;;;;;;5034125;28;20025;-73
2023/06/16 06:40:44;;;;;;;8.63;7.85;;;;;;;;;;5034168;28;20045;-73
2023/06/16 06:43:10;;;;;;;8.95;7.90;;;;;;;;;;5032783;28;20046;-73
2023/06/16 06:45:36;;;;;;;8.07;7.28;;;;;;;;;;5034109;28;20029;-73
2023/06/16 06:48:01;;;;;;;8.18;7.10;;;;;;;;;;5034056;28;20025;-73
2023/06/16 06:50:27;;;;;;;8.65;7.85;;;;;;;;;;5034004;28;20033;-73
2023/06/16 06:52:53;;;;;;;7.55;6.80;;;;;;;;;;5033916;28;20114;-73
2023/06/16 06:55:20;;;;;;;8.32;6.65;;;;;;;;;;5033779;28;20113;-73
2023/06/16 06:57:49;;;;;;;8.68;7.15;;;;;;;;;;5033922;28;20376;-73
2023/06/16 07:00:15;;;;;;;7.50;6.70;;;;;;;;;;5033840;28;20024;-73
2023/06/16 07:02:41;;;;;;;7.80;7.00;;;;;;;;;;5033604;28;20022;-73
2023/06/16 07:05:08;;;;;;;7.85;7.13;;;;;;;;;;5033776;28;20126;-73
2023/06/16 07:07:34;;;;;;;9.18;6.20;;;;;;;;;;5033653;28;20021;-73
2023/06/16 07:10:00;;;;;;;7.45;6.40;;;;;;;;;;5033832;28;20026;-73
2023/06/16 07:12:26;;;;;;;9.05;6.30;;;;;;;;;;5033628;28;20049;-73
2023/06/16 07:14:52;;;;;;;6.25;5.65;;;;;;;;;;5033400;28;20457;-73
2023/06/16 07:17:18;;;;;;;6.10;5.60;;;;;;;;;;5033475;28;20025;-73
2023/06/16 07:19:44;;;;;;;6.47;5.10;;;;;;;;;;5033357;28;20342;-73
2023/06/16 07:22:10;;;;;;;6.55;5.00;;;;;;;;;;5033386;28;20025;-73
2023/06/16 07:24:36;;;;;;;6.68;5.45;;;;;;;;;;5033352;28;20037;-73
2023/06/16 07:27:03;;;;;;;5.20;4.80;;;;;;;;;;5033125;28;20025;-73
2023/06/16 07:29:30;;;;;;;5.97;4.63;;;;;;;;;;5033308;28;20500;-73
2023/06/16 07:31:56;;;;;;;5.20;4.68;;;;;;;;;;5033173;28;20025;-73
2023/06/16 07:34:22;;;;;;;5.22;4.18;;;;;;;;;;5032906;28;20029;-73
2023/06/16 07:36:48;;;;;;;5.78;4.93;;;;;;;;;;5032968;28;20353;-73
2023/06/16 07:39:14;;;;;;;5.13;4.40;;;;;;;;;;5032962;28;20044;-73
2023/06/16 07:41:44;;;;;;;5.82;5.22;;;;;;;;;;5032703;28;20118;-73
2023/06/16 07:44:10;;;;;;;4.50;4.10;;;;;;;;;;5033267;28;20032;-73
2023/06/16 07:46:36;;;;;;;4.80;4.30;;;;;;;;;;5032807;28;20041;-73
2023/06/16 07:49:02;;;;;;;5.78;4.40;;;;;;;;;;5033093;28;20029;-73
2023/06/16 07:51:28;;;;;;;3.55;3.25;;;;;;;;;;5032750;28;20080;-73
2023/06/16 07:53:54;;;;;;;4.28;3.35;;;;;;;;;;5032996;28;20025;-73
2023/06/16 07:56:20;;;;;;;4.10;3.70;;;;;;;;;;5033052;28;20029;-73
2023/06/16 07:58:46;;;;;;;4.38;3.60;;;;;;;;;;5032595;28;20033;-73
2023/06/16 08:01:12;;;;;;;3.28;2.95;;;;;;;;;;5032668;28;20064;-73
2023/06/16 08:03:38;;;;;;;3.40;2.95;;;;;;;;;;5032606;28;20078;-73
2023/06/16 08:06:08;;;;;;;3.15;2.95;;;;;;;;;;5032729;28;20017;-73
2023/06/16 08:08:35;;;;;;;3.67;3.20;;;;;;;;;;5032574;28;20033;-73
2023/06/16 08:11:02;;;;;;;4.95;3.33;;;;;;;;;;5032753;28;20029;-73
2023/06/16 08:13:28;;;;;;;3.55;3.05;;;;;;;;;;5032577;28;20070;-73
2023/06/16 08:15:54;;;;;;;2.83;2.63;;;;;;;;;;5032493;28;20030;-73
2023/06/16 08:18:20;;;;;;;3.30;3.00;;;;;;;;;;5032353;28;20152;-73
2023/06/16 08:20:47;;;;;;;3.20;2.83;;;;;;;;;;5032357;28;20183;-73
2023/06/16 08:23:13;;;;;;;3.92;2.63;;;;;;;;;;5032467;28;20045;-73
2023/06/16 08:25:39;;;;;;;3.50;3.03;;;;;;;;;;5032349;28;20465;-73
2023/06/16 08:28:07;;;;;;;6.00;3.47;;;;;;;;;;5032192;28;20147;-73
2023/06/16 08:30:33;;;;;;;3.50;3.20;;;;;;;;;;5032640;28;20014;-73
2023/06/16 08:32:59;;;;;;;3.60;3.13;;;;;;;;;;5032306;28;20025;-73
2023/06/16 08:35:25;;;;;;;3.10;2.80;;;;;;;;;;5032162;28;20087;-73
2023/06/16 08:37:51;;;;;;;2.70;2.50;;;;;;;;;;5032170;28;20034;-73
2023/06/16 08:40:17;;;;;;;4.32;3.00;;;;;;;;;;5032146;28;20021;-73
2023/06/16 08:42:43;;;;;;;4.13;3.45;;;;;;;;;;5030684;28;20049;-73
2023/06/16 08:45:10;;;;;;;3.53;2.90;;;;;;;;;;5032248;28;20052;-73
2023/06/16 08:47:39;;;;;;;3.60;3.10;;;;;;;;;;5035306;28;20021;-73
2023/06/16 08:50:05;;;;;;;;;;;;;;;;;;5036705;28;20164;-73
2023/06/16 08:52:33;;;;;;;4.90;3.15;;;;;;;;;;5036222;28;19909;-73
2023/06/16 08:55:01;;;;;;;3.80;3.40;;;;;;;;;;5036074;28;20041;-73
2023/06/16 08:57:27;;;;;;;3.20;2.70;;;;;;;;;;5036236;28;20029;-73
2023/06/16 08:59:57;;;;;;;3.17;2.17;;;;;;;;;;5036056;28;20025;-73
2023/06/16 09:02:23;;;;;;;2.70;1.92;;;;;;;;;;5035990;28;20527;-73
2023/06/16 09:04:53;;;;;;;3.92;2.95;;;;;;;;;;5035935;28;20101;-73
2023/06/16 09:07:19;;;;;;;3.10;2.45;;;;;;;;;;5036055;28;20457;-73
2023/06/16 09:09:46;;;;;;;3.72;2.50;;;;;;;;;;5035765;28;20469;-73
2023/06/16 09:12:12;;;;;;;2.58;2.38;;;;;;;;;;5036000;28;20021;-73
2023/06/16 09:14:39;;;;;;;3.83;2.38;;;;;;;;;;5035726;28;20035;-73
2023/06/16 09:17:09;;;;;;;3.13;2.17;;;;;;;;;;5035789;28;20029;-73
2023/06/16 09:19:47;;;;;;;2.13;1.92;;;;;;;;;;5035821;28;20017;-73
2023/06/16 09:22:18;;;;;;;3.10;1.80;;;;;;;;;;5035702;28;20069;-73
2023/06/16 09:24:44;;;;;;;2.05;1.85;;;;;;;;;;5035747;28;20045;-73
2023/06/16 09:27:10;;;;;;;3.63;1.83;;;;;;;;;;5035405;28;20029;-73
2023/06/16 09:29:37;;;;;;;3.58;2.05;;;;;;;;;;5035643;28;20025;-73
2023/06/16 09:32:10;;;;;;;8.25;1.98;;;;;;;;;;5035480;28;20029;-73
2023/06/16 09:34:37;;;;;;;3.70;2.08;;;;;;;;;;5035400;28;20037;-73
2023/06/16 09:37:06;;;;;;;4.13;2.13;;;;;;;;;;5034040;28;20025;-73
2023/06/16 09:39:32;;;;;;;2.20;2.00;;;;;;;;;;5035304;28;20017;-73
2023/06/16 09:42:01;;;;;;;2.15;1.92;;;;;;;;;;5034103;28;20026;-73
2023/06/16 09:44:27;;;;;;;3.38;1.70;;;;;;;;;;5035301;28;20036;-73
2023/06/16 09:46:53;;;;;;;3.33;1.88;;;;;;;;;;5035142;28;20025;-73
2023/06/16 09:49:24;;;;;;;4.07;1.92;;;;;;;;;;5035029;28;20443;-73
2023/06/16 09:51:54;;;;;;;2.42;1.98;;;;;;;;;;5035296;28;20025;-73
2023/06/16 09:54:21;;;;;;;3.70;2.17;;;;;;;;;;5035000;28;20099;-73
2023/06/16 09:56:47;;;;;;;2.90;1.70;;;;;;;;;;5034769;28;20510;-73
2023/06/16 09:59:15;;;;;;;3.38;2.15;;;;;;;;;;5034968;28;20029;-73
2023/06/16 10:01:43;;;;;;;2.83;2.10;;;;;;;;;;5035242;28;20013;-73
2023/06/16 10:04:10;;;;;;;2.25;2.05;;;;;;;;;;5034906;28;20570;-73
2023/06/16 10:06:43;;;;;;;2.05;1.80;;;;;;;;;;5034918;28;20691;-73
2023/06/16 10:09:10;;;;;;;4.53;2.13;;;;;;;;;;5034917;28;20022;-73
2023/06/16 10:11:37;;;;;;;3.70;2.00;;;;;;;;;;5034777;28;20152;-73
2023/06/16 10:14:05;;;;;;;2.45;2.17;;;;;;;;;;5034567;28;20025;-73
2023/06/16 10:16:32;;;;;;;2.83;2.20;;;;;;;;;;5034530;28;20036;-73
2023/06/16 10:18:59;;;;;;;4.18;2.40;;;;;;;;;;5034572;28;20026;-73
2023/06/16 10:21:26;;;;;;;4.07;2.40;;;;;;;;;;5034563;28;20103;-73
2023/06/16 10:23:52;;;;;;;5.03;1.65;;;;;;;;;;5034508;28;20487;-73
2023/06/16 10:26:19;;;;;;;3.15;2.40;;;;;;;;;;5034441;28;20049;-73
2023/06/16 10:28:46;;;;;;;5.72;2.78;;;;;;;;;;5034321;28;20018;-73
2023/06/16 10:31:14;;;;;;;2.97;2.70;;;;;;;;;;5034377;28;20010;-73
2023/06/16 10:34:00;;;;;;;2.85;2.35;;;;;;;;;;5034584;28;20024;-72
2023/06/16 10:36:32;;;;;;;4.18;2.72;;;;;;;;;;5033960;28;20548;-73
2023/06/16 10:39:03;;;;;;;4.40;2.53;;;;;;;;;;5034358;28;20048;-73
2023/06/16 10:41:29;;;;;;;4.22;2.47;;;;;;;;;;5034163;28;20028;-73
2023/06/16 10:43:56;;;;;;;5.20;2.53;;;;;;;;;;5033969;28;20053;-72
2023/06/16 10:46:22;;;;;;;3.78;2.53;;;;;;;;;;5033514;28;20032;-73
2023/06/16 10:49:20;;;;;;;3.20;2.90;;;;;;;;;;5033995;28;20033;-73
2023/06/16 10:51:50;;;;;;;3.92;2.90;;;;;;;;;;5011154;28;20041;-73
2023/06/16 10:54:36;;;;;;;1.80;1.70;;;;;;;;;;5033881;28;20026;-73
2023/06/16 10:57:08;;;;;;;2.45;2.25;;;;;;;;;;5033854;28;20029;-73
2023/06/16 10:59:54;;;;;;;2.90;2.50;;;;;;;;;;5033788;28;20396;-73
2023/06/16 11:02:34;;;;;;;3.30;2.65;;;;;;;;;;5033915;28;20084;-73
2023/06/16 11:05:09;;;;;;;4.70;2.42;;;;;;;;;;5034098;28;20112;-73
2023/06/16 11:07:48;;;;;;;3.58;2.40;;;;;;;;;;5033848;28;20021;-73
2023/06/16 11:10:18;;;;;;;3.08;2.72;;;;;;;;;;5033492;28;20029;-73
2023/06/16 11:12:47;;;;;;;3.00;2.60;;;;;;;;;;5033453;28;20022;-73
2023/06/16 11:15:14;;;;;;;3.05;2.38;;;;;;;;;;5033415;28;20033;-72
2023/06/16 11:17:43;;;;;;;3.13;2.55;;;;;;;;;;5033383;28;20056;-72
2023/06/16 11:20:11;;;;;;;2.10;1.48;;;;;;;;;;5033399;28;20067;-73
2023/06/16 11:22:37;;;;;;;1.55;1.45;;;;;;;;;;5033742;28;20017;-72
2023/06/16 11:25:03;;;;;;;2.45;2.25;;;;;;;;;;5033357;28;20021;-73
2023/06/16 11:27:30;;;;;;;3.58;1.90;;;;;;;;;;5033203;28;20021;-72
2023/06/16 11:29:57;;;;;;;3.88;2.95;;;;;;;;;;5033174;28;20033;-72
2023/06/16 11:32:34;;;;;;;3.97;2.78;;;;;;;;;;5033225;28;20022;-72
2023/06/16 11:35:01;;;;;;;3.35;2.88;;;;;;;;;;5033059;28;20025;-72
2023/06/16 11:37:46;;;;;;;4.78;2.75;;;;;;;;;;5032987;28;20029;-72
2023/06/16 11:40:15;;;;;;;2.92;2.50;;;;;;;;;;5033065;28;20029;-72
2023/06/16 11:42:41;;;;;;;4.03;2.80;;;;;;;;;;5032651;28;20077;-72
2023/06/16 11:45:07;;;;;;;5.28;3.15;;;;;;;;;;5033000;28;20696;-72
2023/06/16 11:47:33;;;;;;;2.47;2.22;;;;;;;;;;5032957;28;20079;-73
2023/06/16 11:49:59;;;;;;;4.28;2.90;;;;;;;;;;5032909;28;20053;-72
2023/06/16 11:52:25;;;;;;;3.00;2.70;;;;;;;;;;5032774;28;20025;-73
2023/06/16 11:54:57;;;;;;;2.92;2.20;;;;;;;;;;5032780;28;20044;-72
2023/06/16 11:57:23;;;;;;;2.63;2.40;;;;;;;;;;5032935;28;20014;-72
2023/06/16 11:59:49;;;;;;;2.90;2.53;;;;;;;;;;5032686;28;20499;-72
2023/06/16 12:02:15;;;;;;;5.47;2.20;;;;;;;;;;5032721;28;20029;-72
2023/06/16 12:04:44;;;;;;;3.40;2.65;;;;;;;;;;5032656;28;20087;-72
2023/06/16 12:07:11;;;;;;;3.42;2.20;;;;;;;;;;5032666;28;20030;-72
2023/06/16 12:09:37;;;;;;;1.65;1.52;;;;;;;;;;5032619;28;20039;-73
2023/06/16 12:12:10;;;;;;;2.78;2.17;;;;;;;;;;5032627;28;20052;-72
2023/06/16 12:14:36;;;;;;;4.82;2.10;;;;;;;;;;5032501;28;20063;-72
2023/06/16 12:17:03;;;;;;;2.60;1.50;;;;;;;;;;5032429;28;20117;-73
2023/06/16 12:19:29;;;;;;;2.67;2.13;;;;;;;;;;5032343;28;20036;-72
2023/06/16 12:22:01;;;;;;;2.13;1.70;;;;;;;;;;5031726;28;20091;-72
2023/06/16 12:24:28;;;;;;;4.30;2.17;;;;;;;;;;5032295;28;20470;-73
2023/06/16 12:26:55;;;;;;;2.65;2.33;;;;;;;;;;5030996;28;20465;-73
2023/06/16 12:29:21;;;;;;;3.10;1.92;;;;;;;;;;5032307;28;20025;-72
2023/06/16 12:32:00;;;;;;;2.40;1.67;;;;;;;;;;5032157;28;20030;-72
2023/06/16 12:34:30;;;;;;;2.90;2.50;;;;;;;;;;5032131;28;20084;-72
2023/06/16 12:36:56;;;;;;;;;;;;;;;;;;5032797;28;20487;-73
2023/06/16 12:39:22;;;;;;;3.05;1.65;;;;;;;;;;5032139;28;19905;-72
2023/06/16 12:41:57;;;;;;;2.95;1.95;;;;;;;;;;5032200;28;20028;-72
2023/06/16 12:44:24;;;;;;;2.00;1.90;;;;;;;;;;5031973;28;20099;-72
2023/06/16 12:46:51;;;;;;;2.15;1.95;;;;;;;;;;5032150;28;20024;-73
2023/06/16 12:49:19;;;;;;;2.58;1.33;;;;;;;;;;5032116;28;20032;-72
2023/06/16 12:51:45;;;;;;;2.17;1.98;;;;;;;;;;5032084;28;20703;-73
2023/06/16 12:54:11;;;;;;;4.10;2.33;;;;;;;;;;5032024;28;20029;-73
2023/06/16 12:56:38;;;;;;;3.28;2.00;;;;;;;;;;5032019;28;20033;-72
2023/06/16 12:59:04;;;;;;;2.20;2.00;;;;;;;;;;5032263;28;20022;-72
2023/06/16 13:01:30;;;;;;;2.85;1.75;;;;;;;;;;5032298;28;20067;-72
2023/06/16 13:03:56;;;;;;;2.15;1.98;;;;;;;;;;5030701;28;20112;-72
2023/06/16 13:06:22;;;;;;;4.03;1.85;;;;;;;;;;5031905;28;20033;-73
2023/06/16 13:08:48;;;;;;;2.42;1.92;;;;;;;;;;5032045;28;20021;-72
2023/06/16 13:11:14;;;;;;;2.40;1.70;;;;;;;;;;5031932;28;20026;-72
2023/06/16 13:13:40;;;;;;;2.15;1.33;;;;;;;;;;5031864;28;20029;-72
2023/06/16 13:16:06;;;;;;;2.75;1.98;;;;;;;;;;5032011;28;20607;-72
2023/06/16 13:18:32;;;;;;;1.80;1.70;;;;;;;;;;5031788;28;20589;-72
2023/06/16 13:20:59;;;;;;;3.17;2.22;;;;;;;;;;5031811;28;20049;-72
2023/06/16 13:23:25;;;;;;;2.25;2.00;;;;;;;;;;5031835;28;20064;-73
2023/06/16 13:25:51;;;;;;;2.95;2.10;;;;;;;;;;5031747;28;20056;-73
2023/06/16 13:28:19;;;;;;;2.72;1.98;;;;;;;;;;5031576;28;20037;-73
2023/06/16 13:30:45;;;;;;;3.40;2.22;;;;;;;;;;5032131;28;20075;-72
2023/06/16 13:33:11;;;;;;;1.95;1.73;;;;;;;;;;5033868;28;20491;-72
2023/06/16 13:35:37;;;;;;;2.35;2.10;;;;;;;;;;5035338;28;20041;-72
2023/06/16 13:38:03;;;;;;;3.40;2.17;;;;;;;;;;5035387;28;20026;-73
2023/06/16 13:40:29;;;;;;;3.95;1.40;;;;;;;;;;5035254;28;20337;-73
2023/06/16 13:42:55;;;;;;;2.47;2.10;;;;;;;;;;5034107;28;20076;-72
2023/06/16 13:45:21;;;;;;;3.00;1.60;;;;;;;;;;5035473;28;20034;-72
2023/06/16 13:47:51;;;;;;;3.95;2.35;;;;;;;;;;5035112;28;20084;-72
2023/06/16 13:50:17;;;;;;;4.35;1.67;;;;;;;;;;5035121;28;20094;-72
2023/06/16 13:52:43;;;;;;;2.25;1.98;;;;;;;;;;5035104;28;20034;-72
2023/06/16 13:55:09;;;;;;;5.72;2.38;;;;;;;;;;5034929;28;20040;-72
2023/06/16 13:57:35;;;;;;;2.42;1.65;;;;;;;;;;5035247;28;20022;-73
2023/06/16 14:00:02;;;;;;;2.13;1.55;;;;;;;;;;5035337;28;20046;-73
2023/06/16 14:02:28;;;;;;;2.65;2.08;;;;;;;;;;5034955;28;20018;-73
2023/06/16 14:04:54;;;;;;;2.67;1.75;;;;;;;;;;5034886;28;20036;-73
2023/06/16 14:07:20;;;;;;;2.20;2.00;;;;;;;;;;5034900;28;20024;-72
2023/06/16 14:09:46;;;;;;;5.35;1.90;;;;;;;;;;5034774;28;20104;-73
2023/06/16 14:12:12;;;;;;;2.20;1.63;;;;;;;;;;5034775;28;20029;-72
2023/06/16 14:14:38;;;;;;;1.73;1.63;;;;;;;;;;5034704;28;20032;-73
2023/06/16 14:17:04;;;;;;;2.55;1.55;;;;;;;;;;5034716;28;20022;-72
2023/06/16 14:19:30;;;;;;;3.17;1.77;;;;;;;;;;5035027;28;20424;-72
2023/06/16 14:21:56;;;;;;;1.95;1.70;;;;;;;;;;5034604;28;20029;-72
2023/06/16 14:24:22;;;;;;;2.75;1.90;;;;;;;;;;5034444;28;20476;-73
2023/06/16 14:26:48;;;;;;;3.80;2.10;;;;;;;;;;5034545;28;20083;-73
2023/06/16 14:29:14;;;;;;;4.53;1.85;;;;;;;;;;5034615;28;20022;-73
2023/06/16 14:31:40;;;;;;;2.80;1.42;;;;;;;;;;5034533;28;20040;-72
2023/06/16 14:34:07;;;;;;;3.00;2.17;;;;;;;;;;5034281;28;20022;-72